Time;durP1;ratioP1;P1;durP2;ratioP2;P2;SDS_P1;SDS_P2;PMS_P1;PMS_P2;Temp;Humidity;BMP_temperature;BMP_pressure;BME280_temperature;BME280_humidity;BME280_pressure;Samples;Min_cycle;Max_cycle;Signal;HPM_P1;HPM_P2
2023/03/19 00:00:19;;;;;;;5.18;2.50;;;9.30;99.90;;;;;;4994848;28;20077;-59
2023/03/19 00:02:50;;;;;;;3.20;1.92;;;9.30;99.90;;;;;;5023834;28;20400;-59
2023/03/19 00:05:17;;;;;;;8.15;2.53;;;9.30;99.90;;;;;;4999016;28;20149;-59
2023/03/19 00:07:44;;;;;;;4.95;2.40;;;9.30;99.90;;;;;;5021957;28;20103;-59
2023/03/19 00:10:11;;;;;;;4.45;2.60;;;9.20;99.90;;;;;;5017273;28;20495;-58
2023/03/19 00:12:38;;;;;;;5.72;2.67;;;9.20;99.90;;;;;;5013828;28;20091;-57
2023/03/19 00:15:07;;;;;;;8.55;3.03;;;9.20;99.90;;;;;;5017678;28;20045;-58
2023/03/19 00:17:34;;;;;;;6.28;2.55;;;9.10;99.90;;;;;;4997050;28;20104;-59
2023/03/19 00:20:01;;;;;;;4.50;2.25;;;9.10;99.90;;;;;;5020731;28;20061;-58
2023/03/19 00:22:28;;;;;;;3.97;2.38;;;9.10;99.90;;;;;;4999974;28;20046;-60
2023/03/19 00:24:55;;;;;;;5.93;2.00;;;9.10;99.90;;;;;;5022616;28;20115;-59
2023/03/19 00:27:21;;;;;;;3.28;2.13;;;9.10;99.90;;;;;;5020904;28;20076;-59
2023/03/19 00:29:48;;;;;;;4.70;2.42;;;9.20;99.90;;;;;;5010660;28;20056;-58
2023/03/19 00:32:15;;;;;;;5.95;2.45;;;9.10;99.90;;;;;;5019846;28;20050;-57
2023/03/19 00:34:42;;;;;;;8.02;2.30;;;9.10;99.90;;;;;;5009505;28;20072;-59
2023/03/19 00:37:09;;;;;;;3.05;2.20;;;9.10;99.90;;;;;;5021116;28;20052;-58
2023/03/19 00:39:35;;;;;;;5.10;2.17;;;9.10;99.90;;;;;;5014490;28;20518;-56
2023/03/19 00:42:02;;;;;;;4.68;2.35;;;9.20;99.90;;;;;;5019486;28;20511;-62
2023/03/19 00:44:29;;;;;;;9.43;2.17;;;9.20;99.90;;;;;;5012645;28;20126;-58
2023/03/19 00:46:56;;;;;;;4.93;1.80;;;9.20;99.90;;;;;;5016023;28;20057;-62
2023/03/19 00:49:22;;;;;;;6.78;2.13;;;9.20;99.90;;;;;;5014943;28;20041;-59
2023/03/19 00:51:49;;;;;;;4.80;2.03;;;9.20;99.90;;;;;;5000837;28;20053;-59
2023/03/19 00:54:16;;;;;;;3.60;2.17;;;9.30;99.90;;;;;;5013989;28;20053;-58
2023/03/19 00:56:43;;;;;;;3.75;2.15;;;9.30;99.90;;;;;;5015554;28;20045;-58
2023/03/19 00:59:10;;;;;;;6.28;2.33;;;9.30;99.90;;;;;;5019028;28;20137;-59
2023/03/19 01:01:37;;;;;;;5.18;1.90;;;9.30;99.90;;;;;;5015301;28;20393;-59
2023/03/19 01:04:04;;;;;;;5.63;1.98;;;9.30;99.90;;;;;;5022917;28;20065;-59
2023/03/19 01:06:31;;;;;;;4.78;2.47;;;9.30;99.90;;;;;;5005805;28;20042;-57
2023/03/19 01:08:57;;;;;;;4.25;2.15;;;9.30;99.90;;;;;;5023029;28;20056;-59
2023/03/19 01:11:24;;;;;;;4.43;2.35;;;9.30;99.90;;;;;;5010723;28;20511;-59
2023/03/19 01:13:51;;;;;;;4.00;2.15;;;9.30;99.90;;;;;;5013082;28;20050;-60
2023/03/19 01:16:18;;;;;;;4.22;1.92;;;9.30;99.90;;;;;;5024563;28;20061;-60
2023/03/19 01:18:45;;;;;;;10.05;2.33;;;9.30;99.90;;;;;;5022148;28;20099;-59
2023/03/19 01:21:12;;;;;;;3.10;2.05;;;9.40;99.90;;;;;;5023827;28;20576;-61
2023/03/19 01:23:39;;;;;;;3.83;2.42;;;9.40;99.90;;;;;;5019297;28;20049;-60
2023/03/19 01:26:07;;;;;;;5.35;2.55;;;9.40;99.90;;;;;;5018780;28;20504;-62
2023/03/19 01:28:33;;;;;;;6.32;2.78;;;9.50;99.90;;;;;;5012876;28;20045;-60
2023/03/19 01:31:01;;;;;;;4.18;2.30;;;9.40;99.90;;;;;;5007064;28;20133;-58
2023/03/19 01:33:28;;;;;;;3.08;2.20;;;9.40;99.90;;;;;;5012916;28;20108;-60
2023/03/19 01:35:56;;;;;;;5.43;2.50;;;9.40;99.90;;;;;;5019781;28;20046;-59
2023/03/19 01:38:24;;;;;;;7.45;2.25;;;9.40;99.90;;;;;;5018148;28;20678;-60
2023/03/19 01:40:51;;;;;;;3.45;2.35;;;9.30;99.90;;;;;;5002996;28;20124;-61
2023/03/19 01:43:25;;;;;;;4.78;2.80;;;9.30;99.90;;;;;;5020337;28;20080;-59
2023/03/19 01:45:56;;;;;;;5.63;2.15;;;9.30;99.90;;;;;;5017185;28;20455;-61
2023/03/19 01:48:49;;;;;;;6.78;2.58;;;9.30;99.90;;;;;;5019667;28;20382;-59
2023/03/19 01:51:17;;;;;;;5.17;2.20;;;9.20;99.90;;;;;;5007751;28;20056;-61
2023/03/19 01:53:46;;;;;;;3.72;2.20;;;9.10;99.90;;;;;;5001664;28;20103;-60
2023/03/19 01:56:21;;;;;;;3.63;2.30;;;9.10;99.90;;;;;;4996409;28;20059;-59
2023/03/19 01:58:50;;;;;;;3.50;2.92;;;9.00;99.90;;;;;;5023271;28;20090;-59
2023/03/19 02:01:16;;;;;;;3.72;2.30;;;8.90;99.90;;;;;;5012857;28;20244;-57
2023/03/19 02:03:43;;;;;;;6.03;1.70;;;9.00;99.90;;;;;;5022792;28;20053;-60
2023/03/19 02:06:11;;;;;;;4.68;1.48;;;8.90;99.90;;;;;;5005143;28;20089;-60
2023/03/19 02:08:37;;;;;;;2.90;1.55;;;8.80;99.90;;;;;;5008936;28;20053;-58
2023/03/19 02:11:04;;;;;;;2.28;1.50;;;8.80;99.90;;;;;;5006440;28;20048;-59
2023/03/19 02:13:33;;;;;;;6.00;1.50;;;8.60;99.90;;;;;;5009972;28;20042;-58
2023/03/19 02:16:00;;;;;;;4.43;1.50;;;8.50;99.90;;;;;;5005999;28;20049;-58
2023/03/19 02:18:27;;;;;;;2.42;1.27;;;8.50;99.90;;;;;;5012821;28;20472;-59
2023/03/19 02:21:05;;;;;;;2.00;1.13;;;8.40;99.90;;;;;;5002839;28;20085;-58
2023/03/19 02:23:57;;;;;;;4.85;1.15;;;8.20;99.90;;;;;;4665969;28;10000069;-57
2023/03/19 02:26:24;;;;;;;5.25;1.33;;;8.20;99.90;;;;;;5020589;28;20220;-58
2023/03/19 02:28:51;;;;;;;1.88;0.98;;;8.10;99.90;;;;;;4996263;28;20144;-58
2023/03/19 02:31:19;;;;;;;1.85;1.27;;;8.10;99.90;;;;;;5024581;28;20103;-58
2023/03/19 02:33:57;;;;;;;8.05;1.63;;;8.00;99.90;;;;;;5011494;28;20516;-58
2023/03/19 02:36:24;;;;;;;1.08;0.98;;;7.90;99.90;;;;;;5006510;28;20140;-60
2023/03/19 02:38:51;;;;;;;5.78;1.30;;;7.70;99.90;;;;;;4994172;28;20503;-59
2023/03/19 02:41:18;;;;;;;3.28;1.23;;;7.70;99.90;;;;;;5002145;28;20046;-58
2023/03/19 02:43:45;;;;;;;6.10;1.35;;;7.80;99.90;;;;;;5009308;28;20137;-58
2023/03/19 02:46:12;;;;;;;3.60;1.27;;;7.80;99.90;;;;;;5022061;28;20038;-57
2023/03/19 02:48:40;;;;;;;3.35;0.90;;;7.80;99.90;;;;;;5014629;28;20364;-58
2023/03/19 02:51:07;;;;;;;3.25;1.00;;;7.80;99.90;;;;;;5023578;28;20454;-56
2023/03/19 02:53:34;;;;;;;2.33;0.93;;;7.80;99.90;;;;;;4999016;28;20042;-56
2023/03/19 02:56:01;;;;;;;4.78;1.10;;;7.80;99.90;;;;;;5014853;28;20050;-57
2023/03/19 02:58:27;;;;;;;5.43;0.88;;;7.70;99.90;;;;;;5020716;28;20045;-58
2023/03/19 03:00:54;;;;;;;4.45;0.77;;;7.70;99.90;;;;;;5022760;28;20038;-58
2023/03/19 03:03:21;;;;;;;1.92;0.90;;;7.60;99.90;;;;;;5020722;28;20509;-57
2023/03/19 03:05:48;;;;;;;2.95;0.68;;;7.60;99.90;;;;;;5013915;28;20045;-58
2023/03/19 03:08:15;;;;;;;3.63;0.90;;;7.60;99.90;;;;;;5018384;28;20045;-57
2023/03/19 03:10:41;;;;;;;2.65;2.17;;;7.60;99.90;;;;;;5025728;28;20120;-57
2023/03/19 03:13:08;;;;;;;3.80;0.90;;;7.60;99.90;;;;;;5021890;28;20141;-58
2023/03/19 03:15:35;;;;;;;2.33;1.23;;;7.50;99.90;;;;;;5011652;28;20049;-58
2023/03/19 03:18:02;;;;;;;3.50;1.05;;;7.50;99.90;;;;;;4998075;28;20061;-62
2023/03/19 03:20:28;;;;;;;6.90;0.82;;;7.50;99.90;;;;;;5026384;28;20038;-58
2023/03/19 03:22:55;;;;;;;6.03;0.95;;;7.50;99.90;;;;;;5016512;28;20505;-59
2023/03/19 03:25:22;;;;;;;4.22;1.05;;;7.50;99.90;;;;;;5026367;28;20128;-58
2023/03/19 03:27:48;;;;;;;5.90;1.13;;;7.50;99.90;;;;;;5014974;28;20049;-60
2023/03/19 03:30:15;;;;;;;6.40;1.25;;;7.50;99.90;;;;;;5026582;28;20152;-60
2023/03/19 03:32:42;;;;;;;3.33;1.20;;;7.50;99.90;;;;;;5015725;28;20128;-58
2023/03/19 03:35:09;;;;;;;4.22;1.20;;;7.50;99.90;;;;;;5009278;28;20049;-59
2023/03/19 03:37:36;;;;;;;5.45;1.45;;;7.60;99.90;;;;;;5015855;28;20053;-59
2023/03/19 03:40:07;;;;;;;11.70;2.65;;;7.50;99.90;;;;;;4993522;28;20497;-58
2023/03/19 03:42:35;;;;;;;8.90;1.38;;;7.50;99.90;;;;;;5020532;28;20136;-58
2023/03/19 03:45:02;;;;;;;2.60;1.23;;;7.50;99.90;;;;;;5020205;28;20523;-58
2023/03/19 03:47:29;;;;;;;6.75;1.70;;;7.50;99.90;;;;;;5020392;28;20065;-59
2023/03/19 03:49:56;;;;;;;4.53;2.33;;;7.50;99.90;;;;;;5017820;28;20136;-57
2023/03/19 03:52:23;;;;;;;5.55;1.35;;;7.60;99.90;;;;;;5020769;28;20037;-57
2023/03/19 03:54:49;;;;;;;5.43;1.48;;;7.50;99.90;;;;;;5015444;28;20056;-57
2023/03/19 03:57:16;;;;;;;8.93;1.42;;;7.50;99.90;;;;;;5015006;28;20484;-58
2023/03/19 03:59:43;;;;;;;3.72;1.45;;;7.50;99.90;;;;;;5016808;28;20291;-56
2023/03/19 04:02:10;;;;;;;8.63;1.67;;;7.60;99.90;;;;;;5022566;28;20136;-58
2023/03/19 04:04:37;;;;;;;2.85;1.20;;;7.60;99.90;;;;;;5022819;28;20049;-58
2023/03/19 04:07:03;;;;;;;5.00;1.20;;;7.60;99.90;;;;;;5025220;28;20064;-58
2023/03/19 04:09:31;;;;;;;9.88;1.70;;;7.60;99.90;;;;;;5023643;28;20053;-56
2023/03/19 04:11:57;;;;;;;14.02;1.73;;;7.50;99.90;;;;;;5021480;28;20133;-57
2023/03/19 04:14:25;;;;;;;7.32;1.70;;;7.50;99.90;;;;;;5016583;28;20057;-58
2023/03/19 04:16:51;;;;;;;5.55;1.48;;;7.40;99.90;;;;;;5009864;28;20129;-58
2023/03/19 04:19:19;;;;;;;9.57;1.90;;;7.50;99.90;;;;;;5013978;28;20347;-57
2023/03/19 04:21:45;;;;;;;4.78;1.50;;;7.40;99.90;;;;;;5024187;28;20049;-56
2023/03/19 04:24:13;;;;;;;6.68;1.40;;;7.50;99.90;;;;;;5019730;28;20049;-55
2023/03/19 04:26:39;;;;;;;9.27;1.75;;;7.50;99.90;;;;;;5009524;28;20480;-56
2023/03/19 04:29:07;;;;;;;7.97;1.70;;;7.50;99.90;;;;;;5017058;28;20046;-55
2023/03/19 04:31:34;;;;;;;11.63;1.73;;;7.50;99.90;;;;;;5027804;28;20153;-58
2023/03/19 04:34:01;;;;;;;6.43;1.70;;;7.50;99.90;;;;;;5020041;28;20133;-56
2023/03/19 04:36:27;;;;;;;7.00;2.40;;;7.50;99.90;;;;;;5017251;28;20464;-56
2023/03/19 04:38:54;;;;;;;5.95;1.67;;;7.50;99.90;;;;;;5010970;28;20049;-56
2023/03/19 04:41:21;;;;;;;8.88;1.67;;;7.50;99.90;;;;;;4995624;28;20034;-57
2023/03/19 04:43:48;;;;;;;9.82;1.55;;;7.60;99.90;;;;;;5011197;28;20053;-57
2023/03/19 04:46:15;;;;;;;4.47;1.38;;;7.50;99.90;;;;;;5003310;28;20065;-57
2023/03/19 04:48:42;;;;;;;3.50;1.35;;;7.50;99.90;;;;;;5010341;28;20073;-59
2023/03/19 04:51:09;;;;;;;9.30;1.60;;;7.50;99.90;;;;;;5021352;28;20076;-56
2023/03/19 04:53:36;;;;;;;4.60;1.08;;;7.50;99.90;;;;;;5024195;28;20561;-57
2023/03/19 04:56:03;;;;;;;6.97;2.13;;;7.50;99.90;;;;;;5019734;28;20240;-60
2023/03/19 04:58:30;;;;;;;8.45;1.75;;;7.50;99.90;;;;;;5010347;28;20098;-57
2023/03/19 05:00:57;;;;;;;4.53;1.45;;;7.50;99.90;;;;;;5020658;28;20149;-55
2023/03/19 05:03:24;;;;;;;4.18;1.33;;;7.50;99.90;;;;;;5010564;28;20046;-56
2023/03/19 05:05:53;;;;;;;7.50;1.50;;;7.60;99.90;;;;;;5019051;28;20424;-57
2023/03/19 05:08:20;;;;;;;7.35;1.52;;;7.60;99.90;;;;;;5027808;28;20045;-57
2023/03/19 05:10:47;;;;;;;7.40;1.75;;;7.50;99.90;;;;;;5015717;28;20589;-56
2023/03/19 05:13:13;;;;;;;7.00;1.85;;;7.50;99.90;;;;;;5021285;28;20056;-57
2023/03/19 05:15:43;;;;;;;6.78;1.48;;;7.50;99.90;;;;;;4998828;28;20045;-58
2023/03/19 05:18:11;;;;;;;8.23;3.17;;;7.40;99.90;;;;;;5018840;28;20491;-56
2023/03/19 05:20:38;;;;;;;4.75;1.30;;;7.40;99.90;;;;;;5021642;28;20136;-58
2023/03/19 05:23:05;;;;;;;5.38;1.50;;;7.40;99.90;;;;;;4999474;28;20623;-58
2023/03/19 05:25:34;;;;;;;13.70;1.92;;;7.40;99.90;;;;;;5001630;28;20089;-58
2023/03/19 05:28:01;;;;;;;5.20;1.27;;;7.40;99.90;;;;;;5019877;28;20053;-58
2023/03/19 05:30:28;;;;;;;10.50;1.73;;;7.30;99.90;;;;;;5014227;28;20048;-58
2023/03/19 05:32:56;;;;;;;7.80;2.58;;;7.30;99.90;;;;;;5022452;28;20050;-58
2023/03/19 05:35:23;;;;;;;7.38;1.83;;;7.30;99.90;;;;;;4997620;28;20045;-58
2023/03/19 05:37:50;;;;;;;7.35;1.85;;;7.20;99.90;;;;;;5023470;28;20097;-58
2023/03/19 05:40:17;;;;;;;7.97;1.48;;;7.10;99.90;;;;;;5014592;28;20053;-58
2023/03/19 05:42:44;;;;;;;8.32;2.08;;;7.10;99.90;;;;;;5025478;28;20069;-58
2023/03/19 05:45:10;;;;;;;14.65;2.15;;;7.10;99.90;;;;;;5020577;28;20443;-59
2023/03/19 05:47:38;;;;;;;9.13;1.85;;;7.10;99.90;;;;;;5025281;28;20506;-60
2023/03/19 05:50:06;;;;;;;12.02;1.70;;;7.00;99.90;;;;;;5013618;28;20133;-58
2023/03/19 05:52:33;;;;;;;10.82;1.40;;;7.00;99.90;;;;;;5017528;28;20046;-55
2023/03/19 05:54:59;;;;;;;10.60;1.70;;;7.00;99.90;;;;;;5027009;28;20205;-58
2023/03/19 05:57:26;;;;;;;7.03;1.40;;;7.00;99.90;;;;;;5020649;28;20503;-58
2023/03/19 05:59:53;;;;;;;7.40;1.27;;;7.00;99.90;;;;;;5025262;28;20072;-60
2023/03/19 06:02:20;;;;;;;11.63;1.60;;;6.90;99.90;;;;;;5022290;28;20518;-59
2023/03/19 06:04:46;;;;;;;4.60;1.45;;;6.90;99.90;;;;;;5018791;28;20081;-58
2023/03/19 06:07:13;;;;;;;14.18;1.70;;;6.80;99.90;;;;;;5019165;28;20046;-56
2023/03/19 06:09:40;;;;;;;7.43;1.30;;;6.80;99.90;;;;;;5003721;28;20141;-55
2023/03/19 06:12:07;;;;;;;11.65;1.45;;;6.80;99.90;;;;;;5020214;28;20124;-57
2023/03/19 06:14:34;;;;;;;6.43;1.48;;;6.90;99.90;;;;;;5021657;28;20041;-55
2023/03/19 06:17:00;;;;;;;12.80;1.88;;;6.80;99.90;;;;;;5021297;28;20136;-56
2023/03/19 06:19:28;;;;;;;11.50;1.50;;;6.90;99.90;;;;;;5021644;28;20119;-55
2023/03/19 06:21:55;;;;;;;11.75;1.38;;;6.90;99.90;;;;;;5021461;28;20095;-56
2023/03/19 06:24:22;;;;;;;10.00;1.70;;;6.90;99.90;;;;;;5005122;28;20058;-60
2023/03/19 06:26:49;;;;;;;9.52;2.70;;;6.90;99.90;;;;;;5020417;28;20045;-57
2023/03/19 06:29:15;;;;;;;6.63;1.65;;;6.90;99.90;;;;;;5017445;28;20053;-57
2023/03/19 06:31:42;;;;;;;8.35;1.65;;;6.90;99.90;;;;;;5027317;28;20591;-56
2023/03/19 06:34:09;;;;;;;17.13;2.05;;;6.90;99.90;;;;;;5016160;28;20049;-59
2023/03/19 06:36:36;;;;;;;6.47;1.88;;;6.90;99.90;;;;;;5027983;28;20409;-57
2023/03/19 06:39:03;;;;;;;6.43;1.30;;;6.90;99.90;;;;;;5015947;28;20050;-58
2023/03/19 06:41:30;;;;;;;15.05;2.30;;;6.90;99.90;;;;;;5025165;28;20148;-57
2023/03/19 06:43:56;;;;;;;8.27;2.00;;;6.90;99.90;;;;;;5021348;28;20053;-59
2023/03/19 06:46:23;;;;;;;5.28;1.08;;;6.90;99.90;;;;;;5025965;28;20075;-56
2023/03/19 06:48:50;;;;;;;11.05;1.45;;;6.90;99.90;;;;;;5022578;28;20065;-54
2023/03/19 06:51:17;;;;;;;9.95;1.48;;;6.90;99.90;;;;;;5018643;28;20055;-56
2023/03/19 06:53:44;;;;;;;5.20;1.27;;;6.90;99.90;;;;;;5021143;28;20050;-53
2023/03/19 06:56:11;;;;;;;10.73;1.63;;;6.90;99.90;;;;;;5018108;28;20068;-53
2023/03/19 06:58:37;;;;;;;4.07;1.15;;;6.90;99.90;;;;;;5023069;28;20089;-58
2023/03/19 07:01:04;;;;;;;12.00;1.77;;;6.90;99.90;;;;;;5016919;28;20042;-57
2023/03/19 07:03:31;;;;;;;7.47;1.80;;;7.00;99.90;;;;;;5024898;28;20523;-59
2023/03/19 07:05:58;;;;;;;10.15;2.38;;;6.90;99.90;;;;;;5025179;28;20045;-56
2023/03/19 07:08:28;;;;;;;6.05;1.75;;;7.00;99.90;;;;;;5025574;28;20446;-57
2023/03/19 07:10:56;;;;;;;5.88;1.38;;;7.00;99.90;;;;;;5019334;28;20081;-59
2023/03/19 07:13:22;;;;;;;7.57;1.33;;;7.00;99.90;;;;;;5024391;28;20057;-58
2023/03/19 07:15:49;;;;;;;11.82;1.83;;;7.00;99.90;;;;;;5022798;28;20043;-57
2023/03/19 07:18:16;;;;;;;12.98;1.27;;;7.00;99.90;;;;;;5015337;28;20054;-56
2023/03/19 07:20:42;;;;;;;6.10;1.30;;;7.10;99.90;;;;;;5018889;28;20041;-56
2023/03/19 07:23:09;;;;;;;6.88;1.70;;;7.10;99.90;;;;;;5025894;28;20049;-58
2023/03/19 07:25:36;;;;;;;5.90;1.50;;;7.10;99.90;;;;;;5018320;28;20052;-54
2023/03/19 07:28:03;;;;;;;9.32;1.40;;;7.10;99.90;;;;;;5021290;28;20052;-57
2023/03/19 07:30:30;;;;;;;2.15;1.13;;;7.20;99.90;;;;;;5020258;28;20054;-57
2023/03/19 07:32:56;;;;;;;11.80;1.42;;;7.30;99.90;;;;;;5028658;28;20209;-57
2023/03/19 07:35:23;;;;;;;6.63;1.70;;;7.30;99.90;;;;;;4653868;28;10000635;-57
2023/03/19 07:37:50;;;;;;;4.25;1.00;;;7.40;99.90;;;;;;5018078;28;20119;-57
2023/03/19 07:40:17;;;;;;;10.80;1.58;;;7.30;99.90;;;;;;5013293;28;20496;-54
2023/03/19 07:42:44;;;;;;;7.65;3.22;;;7.30;99.90;;;;;;5018180;28;20131;-56
2023/03/19 07:45:11;;;;;;;7.90;1.50;;;7.20;99.90;;;;;;5015961;28;20412;-57
2023/03/19 07:47:38;;;;;;;9.98;1.42;;;7.20;99.90;;;;;;5016206;28;20069;-58
2023/03/19 07:50:06;;;;;;;10.80;2.25;;;7.30;99.90;;;;;;5016026;28;20081;-57
2023/03/19 07:52:32;;;;;;;5.25;1.70;;;7.10;99.90;;;;;;5014546;28;20050;-59
2023/03/19 07:55:00;;;;;;;5.22;1.55;;;7.20;99.90;;;;;;5012628;28;20041;-56
2023/03/19 07:57:27;;;;;;;10.15;1.67;;;7.20;99.90;;;;;;5017839;28;20189;-58
2023/03/19 07:59:54;;;;;;;5.55;1.55;;;7.20;99.90;;;;;;5013732;28;20511;-57
2023/03/19 08:02:20;;;;;;;15.85;2.08;;;7.20;99.90;;;;;;5017317;28;20460;-57
2023/03/19 08:04:49;;;;;;;8.07;2.00;;;7.20;99.90;;;;;;5019641;28;20057;-56
2023/03/19 08:07:16;;;;;;;17.88;2.75;;;7.30;99.90;;;;;;5019612;28;20461;-59
2023/03/19 08:09:43;;;;;;;4.70;1.27;;;7.40;99.90;;;;;;5016798;28;20045;-58
2023/03/19 08:12:10;;;;;;;6.50;1.65;;;7.40;99.90;;;;;;5020050;28;20045;-58
2023/03/19 08:14:37;;;;;;;8.65;2.35;;;7.40;99.90;;;;;;5019700;28;20133;-58
2023/03/19 08:17:03;;;;;;;12.82;1.92;;;7.40;99.90;;;;;;5014720;28;20041;-58
2023/03/19 08:19:31;;;;;;;14.02;2.03;;;7.40;99.90;;;;;;5006351;28;20084;-59
2023/03/19 08:21:58;;;;;;;8.98;2.13;;;7.40;99.90;;;;;;5019021;28;20187;-59
2023/03/19 08:24:24;;;;;;;6.72;1.50;;;7.50;99.90;;;;;;5020961;28;20140;-57
2023/03/19 08:26:52;;;;;;;15.18;2.15;;;7.50;99.90;;;;;;5021083;28;20132;-56
2023/03/19 08:29:18;;;;;;;14.45;1.48;;;7.60;99.90;;;;;;5011461;28;20060;-60
2023/03/19 08:31:45;;;;;;;11.55;1.80;;;7.50;99.90;;;;;;5009468;28;20136;-59
2023/03/19 08:34:12;;;;;;;15.07;1.80;;;7.50;99.90;;;;;;5016031;28;20049;-58
2023/03/19 08:36:39;;;;;;;14.07;2.33;;;7.60;99.90;;;;;;4999055;28;20141;-57
2023/03/19 08:39:06;;;;;;;10.48;1.92;;;7.70;99.90;;;;;;5019211;28;20049;-60
2023/03/19 08:41:33;;;;;;;9.43;1.63;;;7.80;99.90;;;;;;5006895;28;20053;-56
2023/03/19 08:43:59;;;;;;;8.90;2.03;;;7.70;99.90;;;;;;4998533;28;20071;-58
2023/03/19 08:46:26;;;;;;;28.17;2.88;;;7.70;99.90;;;;;;5006565;28;20049;-58
2023/03/19 08:48:53;;;;;;;11.68;2.05;;;7.70;99.90;;;;;;5009208;28;20057;-60
2023/03/19 08:51:20;;;;;;;18.55;2.38;;;7.80;99.90;;;;;;5021256;28;20049;-59
2023/03/19 08:53:47;;;;;;;10.00;2.22;;;7.90;99.90;;;;;;5016029;28;20065;-58
2023/03/19 08:56:14;;;;;;;10.48;2.50;;;7.90;99.90;;;;;;5018828;28;20445;-58
2023/03/19 08:58:41;;;;;;;4.22;2.10;;;7.90;99.90;;;;;;5011600;28;20120;-59
2023/03/19 09:01:09;;;;;;;11.52;1.55;;;8.00;99.90;;;;;;5013647;28;20057;-56
2023/03/19 09:03:37;;;;;;;10.88;1.45;;;7.90;99.90;;;;;;5017749;28;20575;-59
2023/03/19 09:06:05;;;;;;;11.95;2.10;;;7.90;99.90;;;;;;5023722;28;20145;-57
2023/03/19 09:08:32;;;;;;;15.55;1.73;;;7.90;99.90;;;;;;5004586;28;20049;-61
2023/03/19 09:10:59;;;;;;;13.05;2.17;;;8.00;99.90;;;;;;5008277;28;20647;-61
2023/03/19 09:13:26;;;;;;;9.07;1.45;;;8.20;99.90;;;;;;5010796;28;20046;-57
2023/03/19 09:15:52;;;;;;;12.23;1.75;;;8.20;99.90;;;;;;5020632;28;20613;-57
2023/03/19 09:18:19;;;;;;;14.07;2.20;;;8.20;99.90;;;;;;4997690;28;20167;-58
2023/03/19 09:20:46;;;;;;;8.13;1.60;;;8.40;99.90;;;;;;5020465;28;20073;-58
2023/03/19 09:23:14;;;;;;;8.05;1.45;;;8.30;99.90;;;;;;5019315;28;20104;-60
2023/03/19 09:25:41;;;;;;;7.97;1.75;;;8.40;99.90;;;;;;5017572;28;20076;-57
2023/03/19 09:28:07;;;;;;;14.32;2.20;;;8.40;99.90;;;;;;5021498;28;20413;-63
2023/03/19 09:30:34;;;;;;;7.10;1.63;;;8.50;99.90;;;;;;5021191;28;20089;-67
2023/03/19 09:33:02;;;;;;;22.55;2.53;;;8.60;99.90;;;;;;5024668;28;20136;-57
2023/03/19 09:35:30;;;;;;;11.25;1.60;;;8.90;99.90;;;;;;5019697;28;20049;-61
2023/03/19 09:37:57;;;;;;;11.77;2.00;;;8.90;99.90;;;;;;5022220;28;20141;-58
2023/03/19 09:40:32;;;;;;;12.38;1.75;;;8.80;99.90;;;;;;5020805;28;20156;-56
2023/03/19 09:43:23;;;;;;;8.05;1.60;;;8.90;99.90;;;;;;5018777;28;20071;-59
2023/03/19 09:45:50;;;;;;;11.32;1.70;;;8.80;99.90;;;;;;5018887;28;20060;-58
2023/03/19 09:48:38;;;;;;;4.22;1.75;;;8.80;99.90;;;;;;4999374;28;20052;-59
2023/03/19 09:51:05;;;;;;;6.55;1.33;;;8.90;99.90;;;;;;5006826;28;20049;-60
2023/03/19 09:53:39;;;;;;;10.40;1.45;;;8.80;99.90;;;;;;4988706;28;20054;-60
2023/03/19 09:56:06;;;;;;;8.38;1.80;;;8.80;99.90;;;;;;4980492;28;20050;-58
2023/03/19 09:58:34;;;;;;;7.93;1.63;;;8.80;99.90;;;;;;5024796;28;20077;-59
2023/03/19 10:01:01;;;;;;;6.43;1.50;;;8.80;99.90;;;;;;5002119;28;20350;-60
2023/03/19 10:03:54;;;;;;;12.75;1.38;;;8.70;99.90;;;;;;5001117;28;20041;-59
2023/03/19 10:06:34;;;;;;;3.88;1.10;;;8.80;99.90;;;;;;4996807;28;20045;-58
2023/03/19 10:09:38;;;;;;;7.97;1.40;;;9.00;99.90;;;;;;5005018;28;20046;-60
2023/03/19 10:12:37;;;;;;;4.75;1.52;;;9.10;99.90;;;;;;5014358;28;20051;-59
2023/03/19 10:15:16;;;;;;;4.35;1.20;;;9.00;99.90;;;;;;4989892;28;20077;-58
2023/03/19 10:18:10;;;;;;;7.72;1.10;;;9.00;99.90;;;;;;5001462;28;20599;-60
2023/03/19 10:20:47;;;;;;;3.05;1.00;;;9.10;99.90;;;;;;5003294;28;20068;-58
2023/03/19 10:23:24;;;;;;;18.13;2.85;;;9.00;99.90;;;;;;4998437;28;20062;-58
2023/03/19 10:25:55;;;;;;;7.10;1.63;;;9.00;99.90;;;;;;5014831;28;20151;-61
2023/03/19 10:28:22;;;;;;;5.57;1.48;;;9.10;99.90;;;;;;4998239;28;20053;-59
2023/03/19 10:31:09;;;;;;;7.30;1.38;;;9.10;99.90;;;;;;5012575;28;20740;-60
2023/03/19 10:33:45;;;;;;;11.45;1.90;;;9.20;99.90;;;;;;5000326;28;20045;-61
2023/03/19 10:36:12;;;;;;;5.53;1.23;;;9.20;99.90;;;;;;5003703;28;20092;-60
2023/03/19 10:38:42;;;;;;;9.35;1.48;;;9.30;99.90;;;;;;5016269;28;20041;-58
2023/03/19 10:41:14;;;;;;;5.68;1.00;;;9.30;99.90;;;;;;5018893;28;20496;-59
2023/03/19 10:43:41;;;;;;;6.75;1.30;;;9.40;99.90;;;;;;5022329;28;20046;-59
2023/03/19 10:46:13;;;;;;;2.47;1.02;;;9.40;99.90;;;;;;5021474;28;20049;-60
2023/03/19 10:48:44;;;;;;;6.15;1.30;;;9.50;99.90;;;;;;5023502;28;20132;-60
2023/03/19 10:51:14;;;;;;;4.68;1.00;;;9.60;99.90;;;;;;5004152;28;20136;-60
2023/03/19 10:53:40;;;;;;;3.83;0.90;;;9.50;99.90;;;;;;5021011;28;20483;-61
2023/03/19 10:56:18;;;;;;;6.50;1.30;;;9.60;99.90;;;;;;5022995;28;20045;-61
2023/03/19 10:59:02;;;;;;;5.03;1.40;;;9.60;99.90;;;;;;5014855;28;20474;-61
2023/03/19 11:01:33;;;;;;;6.88;1.23;;;9.60;99.90;;;;;;5021543;28;20055;-59
2023/03/19 11:04:01;;;;;;;2.70;0.95;;;9.70;99.90;;;;;;5021859;28;20038;-59
2023/03/19 11:06:32;;;;;;;6.10;1.60;;;9.80;99.90;;;;;;5022419;28;20049;-60
2023/03/19 11:09:13;;;;;;;3.53;0.90;;;9.90;99.90;;;;;;5015439;28;20413;-60
2023/03/19 11:11:52;;;;;;;4.70;1.10;;;9.80;99.90;;;;;;4999993;28;20046;-60
2023/03/19 11:14:20;;;;;;;4.10;0.60;;;9.70;99.90;;;;;;5009047;28;20220;-60
2023/03/19 11:16:49;;;;;;;3.50;0.80;;;9.70;99.90;;;;;;5015851;28;20049;-60
2023/03/19 11:19:27;;;;;;;11.20;1.20;;;9.80;99.90;;;;;;5020079;28;20093;-60
2023/03/19 11:22:27;;;;;;;2.80;0.77;;;9.90;99.90;;;;;;4991719;28;20540;-59
2023/03/19 11:25:24;;;;;;;3.55;0.93;;;10.00;99.90;;;;;;5001863;28;20702;-59
2023/03/19 11:28:02;;;;;;;2.65;0.85;;;10.00;99.90;;;;;;4997360;28;20049;-58
2023/03/19 11:30:52;;;;;;;2.75;0.95;;;9.70;99.90;;;;;;5010974;28;20060;-58
2023/03/19 11:33:28;;;;;;;6.95;1.45;;;9.60;99.90;;;;;;4985550;28;20137;-58
2023/03/19 11:36:07;;;;;;;12.13;1.77;;;9.70;99.90;;;;;;5006042;28;20160;-57
2023/03/19 11:38:45;;;;;;;4.25;1.30;;;9.70;99.90;;;;;;4995015;28;20046;-61
2023/03/19 11:41:22;;;;;;;9.70;1.27;;;10.00;99.90;;;;;;5014631;28;20053;-59
2023/03/19 11:43:53;;;;;;;2.97;0.80;;;10.20;99.90;;;;;;4994731;28;20104;-59
2023/03/19 11:46:27;;;;;;;3.08;1.50;;;10.20;99.90;;;;;;4991030;28;20639;-58
2023/03/19 11:49:06;;;;;;;;;;;10.10;99.90;;;;;;5011572;28;20162;-58
2023/03/19 11:51:48;;;;;;;5.90;1.13;;;10.00;99.90;;;;;;4999668;28;20478;-59
2023/03/19 11:54:37;;;;;;;3.67;1.10;;;10.10;99.90;;;;;;4999713;28;20140;-60
2023/03/19 11:57:08;;;;;;;5.75;0.75;;;10.10;99.90;;;;;;5006172;28;20452;-60
2023/03/19 12:00:03;;;;;;;6.03;1.40;;;10.00;99.90;;;;;;4993964;28;20163;-59
2023/03/19 12:02:44;;;;;;;6.05;1.38;;;10.10;99.90;;;;;;5003837;28;20073;-58
2023/03/19 12:05:15;;;;;;;4.20;1.42;;;10.00;99.90;;;;;;4999831;28;20104;-59
2023/03/19 12:08:40;;;;;;;4.15;1.15;;;10.10;99.90;;;;;;4989819;28;20045;-60
2023/03/19 12:11:24;;;;;;;4.28;1.45;;;10.10;99.90;;;;;;5000164;28;20423;-59
2023/03/19 12:14:19;;;;;;;3.78;1.10;;;10.30;99.90;;;;;;4999882;28;20065;-60
2023/03/19 12:17:31;;;;;;;2.90;1.35;;;10.20;99.90;;;;;;5013753;28;20922;-58
2023/03/19 12:20:23;;;;;;;5.30;1.20;;;10.10;99.90;;;;;;4999616;28;20077;-58
2023/03/19 12:23:09;;;;;;;3.75;1.08;;;10.20;99.90;;;;;;5014746;28;20059;-58
2023/03/19 12:26:05;;;;;;;5.50;0.93;;;10.20;99.90;;;;;;5015951;28;20053;-59
2023/03/19 12:28:34;;;;;;;2.05;0.95;;;10.30;99.90;;;;;;4992009;28;20046;-60
2023/03/19 12:31:23;;;;;;;11.48;1.20;;;10.40;99.90;;;;;;4996152;28;20058;-57
2023/03/19 12:33:56;;;;;;;2.50;1.10;;;10.30;99.90;;;;;;5002630;28;20052;-58
2023/03/19 12:36:26;;;;;;;7.03;1.67;;;10.30;99.90;;;;;;5015545;28;20141;-57
2023/03/19 12:39:18;;;;;;;5.15;1.48;;;10.30;99.90;;;;;;4983644;28;20124;-58
2023/03/19 12:41:46;;;;;;;5.45;1.48;;;10.20;99.90;;;;;;5000389;28;20060;-59
2023/03/19 12:44:22;;;;;;;7.00;1.73;;;10.20;99.90;;;;;;4999578;28;20045;-58
2023/03/19 12:46:56;;;;;;;7.05;2.13;;;10.20;99.90;;;;;;4991315;28;20060;-56
2023/03/19 12:49:34;;;;;;;8.20;2.53;;;10.40;99.90;;;;;;5001715;28;20115;-57
2023/03/19 12:52:22;;;;;;;4.82;1.30;;;10.40;99.90;;;;;;4991741;28;20057;-59
2023/03/19 12:55:03;;;;;;;4.68;1.35;;;10.40;99.90;;;;;;5002843;28;20045;-58
2023/03/19 12:57:35;;;;;;;9.80;1.58;;;10.50;99.90;;;;;;5000043;28;20081;-60
2023/03/19 13:00:23;;;;;;;4.55;1.27;;;10.70;99.90;;;;;;4988434;28;20495;-60
2023/03/19 13:03:06;;;;;;;13.80;1.70;;;10.80;99.90;;;;;;5013955;28;20056;-58
2023/03/19 13:05:40;;;;;;;9.23;1.70;;;10.70;99.90;;;;;;4999917;28;20045;-59
2023/03/19 13:08:22;;;;;;;13.50;1.98;;;10.60;99.90;;;;;;4988251;28;20046;-59